Time;durP1;ratioP1;P1;durP2;ratioP2;P2;SDS_P1;SDS_P2;PMS_P1;PMS_P2;Temp;Humidity;BMP_temperature;BMP_pressure;BME280_temperature;BME280_humidity;BME280_pressure;Samples;Min_cycle;Max_cycle;Signal;HPM_P1;HPM_P2
2023/09/05 00:00:17;;;;;;;15.20;13.70;;;;;;;11.27;100.00;100052.41;109554;1254;64569;-71
2023/09/05 00:03:04;;;;;;;18.20;14.80;;;;;;;11.25;100.00;100050.94;109599;1253;60592;-71
2023/09/05 00:05:32;;;;;;;14.80;13.30;;;;;;;11.23;100.00;100046.77;109522;1252;65409;-71
2023/09/05 00:07:59;;;;;;;15.90;13.50;;;;;;;11.19;100.00;100041.80;109545;1252;58966;-71
2023/09/05 00:10:25;;;;;;;16.50;13.90;;;;;;;11.17;100.00;100041.73;109576;1255;59020;-71
2023/09/05 00:12:52;;;;;;;15.20;13.70;;;;;;;11.15;100.00;100036.14;109557;1253;66123;-71
2023/09/05 00:15:19;;;;;;;17.30;14.80;;;;;;;11.12;100.00;100035.23;109631;1252;58999;-71
2023/09/05 00:17:46;;;;;;;14.70;13.20;;;;;;;11.08;100.00;100031.89;109316;1253;62855;-71
2023/09/05 00:20:15;;;;;;;14.90;13.30;;;;;;;11.04;100.00;100032.27;109572;1253;58966;-71
2023/09/05 00:22:43;;;;;;;13.20;11.90;;;;;;;10.97;100.00;100031.91;109622;1252;58943;-71
2023/09/05 00:25:12;;;;;;;14.00;12.70;;;;;;;10.91;100.00;100029.37;109545;1251;64847;-71
2023/09/05 00:27:40;;;;;;;15.10;13.10;;;;;;;10.89;100.00;100027.36;109597;1252;60578;-71
2023/09/05 00:30:07;;;;;;;16.60;14.10;;;;;;;10.89;100.00;100021.66;109416;1252;62676;-71
2023/09/05 00:32:34;;;;;;;13.70;12.20;;;;;;;10.89;100.00;100021.29;109592;1252;59377;-71
2023/09/05 00:35:01;;;;;;;15.10;12.40;;;;;;;10.88;100.00;100020.29;109594;1253;58931;-71
2023/09/05 00:37:28;;;;;;;14.80;13.30;;;;;;;10.87;100.00;100023.89;109603;1254;66057;-71
2023/09/05 00:39:55;;;;;;;14.40;12.70;;;;;;;10.86;100.00;100026.78;109586;1253;59916;-69
2023/09/05 00:42:21;;;;;;;14.80;13.30;;;;;;;10.85;100.00;100026.68;109525;1252;64213;-69
2023/09/05 00:44:49;;;;;;;14.50;13.00;;;;;;;10.83;100.00;100026.61;109545;1253;59001;-69
2023/09/05 00:47:16;;;;;;;16.00;14.30;;;;;;;10.82;100.00;100024.33;109322;1254;59980;-69
2023/09/05 00:49:47;;;;;;;15.40;13.80;;;;;;;10.82;100.00;100024.36;109691;1250;66112;-69
2023/09/05 00:52:14;;;;;;;17.70;14.70;;;;;;;10.81;100.00;100023.16;109611;1251;59828;-69
2023/09/05 00:54:42;;;;;;;16.50;14.70;;;;;;;10.80;100.00;100018.94;109593;1250;62639;-69
2023/09/05 00:57:14;;;;;;;16.30;14.20;;;;;;;10.79;100.00;100020.77;109637;1250;58925;-69
2023/09/05 00:59:42;;;;;;;15.00;13.30;;;;;;;10.78;100.00;100020.64;109610;1251;59087;-69
2023/09/05 01:02:09;;;;;;;16.30;14.20;;;;;;;10.76;100.00;100020.00;109633;1250;66159;-69
2023/09/05 01:04:36;;;;;;;14.50;13.00;;;;;;;10.74;100.00;100022.81;109676;1251;60217;-69
2023/09/05 01:07:21;;;;;;;13.90;12.50;;;;;;;10.69;100.00;100022.86;109654;1250;64026;-69
2023/09/05 01:10:01;;;;;;;14.00;12.60;;;;;;;10.65;100.00;100020.60;109275;1256;59396;-70
2023/09/05 01:12:28;;;;;;;15.70;14.10;;;;;;;10.63;100.00;100018.38;109694;1251;58847;-69
2023/09/05 01:14:54;;;;;;;17.10;13.10;;;;;;;10.64;100.00;100017.63;109659;1251;66279;-70
2023/09/05 01:17:21;;;;;;;15.80;13.80;;;;;;;10.63;100.00;100018.71;109641;1251;58981;-70
2023/09/05 01:19:53;;;;;;;13.90;12.60;;;;;;;10.63;100.00;100019.98;109615;1250;59010;-69
2023/09/05 01:22:34;;;;;;;16.90;15.00;;;;;;;10.61;100.00;100016.69;109581;1251;58952;-70
2023/09/05 01:25:03;;;;;;;18.00;15.50;;;;;;;10.59;100.00;100014.30;109679;1250;59041;-70
2023/09/05 01:27:29;;;;;;;16.50;15.00;;;;;;;10.57;100.00;100014.42;109646;1251;75109;-70
2023/09/05 01:29:56;;;;;;;16.60;14.20;;;;;;;10.53;100.00;100014.42;109670;1251;58947;-70
2023/09/05 01:32:23;;;;;;;17.00;14.80;;;;;;;10.48;100.00;100014.32;109586;1250;64033;-70
2023/09/05 01:34:50;;;;;;;15.10;13.70;;;;;;;10.44;100.00;100012.92;109610;1251;59002;-70
2023/09/05 01:37:17;;;;;;;16.10;14.30;;;;;;;10.39;100.00;100013.54;109652;1251;59005;-70
2023/09/05 01:39:44;;;;;;;15.30;13.70;;;;;;;10.33;100.00;100017.02;109604;1250;65987;-70
2023/09/05 01:42:11;;;;;;;14.80;13.20;;;;;;;10.30;100.00;100014.17;109708;1250;58976;-70
2023/09/05 01:44:38;;;;;;;15.00;13.60;;;;;;;10.29;100.00;100011.91;109648;1250;64058;-70
2023/09/05 01:47:05;;;;;;;15.40;13.90;;;;;;;10.27;100.00;100014.65;109635;1251;58959;-70
2023/09/05 01:49:32;;;;;;;21.80;15.40;;;;;;;10.24;100.00;100014.92;109303;1251;59013;-71
2023/09/05 01:51:59;;;;;;;16.50;14.80;;;;;;;10.18;100.00;100013.83;109669;1251;64783;-70
2023/09/05 01:54:26;;;;;;;17.00;14.30;;;;;;;10.15;100.00;100011.14;109323;1251;60151;-70
2023/09/05 01:56:52;;;;;;;17.20;15.30;;;;;;;10.13;100.00;100010.55;109394;1251;63744;-71
2023/09/05 01:59:20;;;;;;;17.90;15.70;;;;;;;10.11;100.00;100009.73;109622;1250;58978;-71
2023/09/05 02:01:47;;;;;;;42.50;17.00;;;;;;;10.08;100.00;100007.17;109293;1254;59035;-71
2023/09/05 02:04:13;;;;;;;26.30;18.00;;;;;;;10.07;100.00;100007.09;109355;1257;64873;-70
2023/09/05 02:06:40;;;;;;;44.10;21.20;;;;;;;10.07;100.00;100003.34;109344;1256;60146;-70
2023/09/05 02:09:07;;;;;;;24.00;21.10;;;;;;;10.09;100.00;100000.60;109060;1256;64053;-71
2023/09/05 02:11:34;;;;;;;24.70;21.80;;;;;;;10.12;100.00;100006.66;109287;1257;59377;-71
2023/09/05 02:14:00;;;;;;;20.70;18.60;;;;;;;10.13;100.00;100008.73;109035;1257;59272;-70
2023/09/05 02:16:27;;;;;;;22.10;19.80;;;;;;;10.12;100.00;100007.02;109365;1256;65742;-70
2023/09/05 02:18:54;;;;;;;20.70;18.20;;;;;;;10.10;100.00;100006.05;109417;1257;59087;-70
2023/09/05 02:21:21;;;;;;;19.90;17.70;;;;;;;10.06;100.00;100012.30;109356;1255;59164;-70
2023/09/05 02:23:48;;;;;;;19.20;17.30;;;;;;;10.02;100.00;100017.13;109335;1255;59006;-70
2023/09/05 02:26:14;;;;;;;88.70;20.00;;;;;;;9.98;100.00;100017.11;109359;1256;59016;-70
2023/09/05 02:28:41;;;;;;;61.30;21.20;;;;;;;9.97;100.00;100014.15;109319;1254;66008;-70
2023/09/05 02:31:07;;;;;;;32.30;20.60;;;;;;;9.97;100.00;100016.44;109367;1257;60566;-71
2023/09/05 02:33:36;;;;;;;37.80;20.50;;;;;;;9.97;100.00;100011.82;109531;1251;64043;-70
2023/09/05 02:36:21;;;;;;;57.50;23.70;;;;;;;9.98;100.00;100013.57;109603;1250;59072;-70
2023/09/05 02:38:48;;;;;;;28.50;22.60;;;;;;;9.99;100.00;100018.29;109427;1251;59092;-70
2023/09/05 02:41:16;;;;;;;26.70;22.20;;;;;;;10.01;100.00;100014.33;109321;1250;66450;-70
2023/09/05 02:43:43;;;;;;;84.60;25.30;;;;;;;10.01;100.00;100011.81;109478;1251;60239;-70
2023/09/05 02:46:10;;;;;;;26.50;23.70;;;;;;;10.02;100.00;100009.09;109600;1251;62549;-70
2023/09/05 02:48:40;;;;;;;26.10;23.40;;;;;;;10.03;100.00;100006.04;109635;1251;59042;-70
2023/09/05 02:51:09;;;;;;;26.60;23.80;;;;;;;10.03;100.00;100003.91;109610;1251;59121;-70
2023/09/05 02:53:36;;;;;;;25.00;22.40;;;;;;;10.02;100.00;99998.27;109601;1256;66074;-70
2023/09/05 02:56:04;;;;;;;24.80;22.10;;;;;;;10.01;100.00;99997.06;109659;1251;60129;-70
2023/09/05 02:58:32;;;;;;;21.60;19.30;;;;;;;9.99;100.00;99995.77;109634;1251;63791;-70
2023/09/05 03:00:59;;;;;;;23.00;19.80;;;;;;;9.97;100.00;99995.34;109394;1251;60730;-70
2023/09/05 03:03:27;;;;;;;20.80;18.40;;;;;;;9.95;100.00;99996.65;109722;1251;58938;-70
2023/09/05 03:05:53;;;;;;;21.00;19.00;;;;;;;9.94;100.00;99994.05;109619;1250;64637;-70
2023/09/05 03:08:20;;;;;;;20.40;18.20;;;;;;;9.92;100.00;99997.36;109630;1250;59992;-70
2023/09/05 03:10:51;;;;;;;20.10;17.60;;;;;;;9.89;100.00;99996.23;109198;1255;65176;-70
2023/09/05 03:13:19;;;;;;;19.90;18.00;;;;;;;9.84;100.00;99994.16;109160;1257;58972;-70
2023/09/05 03:15:50;;;;;;;20.20;18.10;;;;;;;9.80;100.00;99993.98;109241;1256;59039;-70
2023/09/05 03:18:17;;;;;;;19.60;17.50;;;;;;;9.76;100.00;99989.02;109195;1256;65115;-70
2023/09/05 03:20:44;;;;;;;20.20;18.10;;;;;;;9.74;100.00;99991.83;109042;1256;60160;-70
2023/09/05 03:23:11;;;;;;;16.80;15.10;;;;;;;9.70;100.00;99992.20;109241;1256;63900;-70
2023/09/05 03:25:38;;;;;;;18.00;14.90;;;;;;;9.63;100.00;99994.45;109202;1256;59029;-70
2023/09/05 03:28:05;;;;;;;19.20;17.20;;;;;;;9.59;100.00;99996.21;109214;1256;59871;-70
2023/09/05 03:30:31;;;;;;;17.50;15.70;;;;;;;9.57;100.00;100002.00;109209;1256;66034;-70
2023/09/05 03:32:58;;;;;;;17.90;16.00;;;;;;;9.54;100.00;100006.77;109213;1256;60109;-71
2023/09/05 03:35:24;;;;;;;19.10;17.20;;;;;;;9.49;100.00;100013.94;109018;1257;64314;-70
2023/09/05 03:37:51;;;;;;;18.80;17.10;;;;;;;9.44;100.00;100017.85;109202;1256;59060;-70
2023/09/05 03:40:17;;;;;;;18.90;17.00;;;;;;;9.38;100.00;100017.41;109229;1257;59180;-70
2023/09/05 03:42:44;;;;;;;22.80;20.50;;;;;;;9.35;100.00;100019.33;109549;1250;66072;-70
2023/09/05 03:45:11;;;;;;;20.80;18.70;;;;;;;9.36;100.00;100016.98;109561;1251;60204;-70
2023/09/05 03:47:37;;;;;;;20.50;18.50;;;;;;;9.38;100.00;100011.41;109597;1251;62953;-69
2023/09/05 03:50:05;;;;;;;22.50;20.00;;;;;;;9.38;100.00;100009.10;109609;1251;59131;-70
2023/09/05 03:52:31;;;;;;;19.90;18.10;;;;;;;9.37;100.00;100004.52;109325;1251;59085;-70
2023/09/05 03:54:58;;;;;;;19.90;18.00;;;;;;;9.37;100.00;100008.61;109633;1250;65853;-70
2023/09/05 03:57:25;;;;;;;20.80;18.60;;;;;;;9.35;100.00;100006.41;109644;1250;60198;-70
2023/09/05 03:59:51;;;;;;;20.60;18.70;;;;;;;9.34;100.00;99998.27;109630;1251;62528;-70
2023/09/05 04:02:18;;;;;;;23.80;21.40;;;;;;;9.35;100.00;100004.27;109652;1251;58949;-70
2023/09/05 04:04:44;;;;;;;24.10;21.70;;;;;;;9.38;100.00;100003.45;109601;1251;59114;-70
2023/09/05 04:07:11;;;;;;;24.30;21.60;;;;;;;9.40;100.00;100007.23;109645;1250;59614;-70
2023/09/05 04:09:37;;;;;;;24.80;22.10;;;;;;;9.42;100.00;100010.33;109711;1251;59977;-69
2023/09/05 04:12:04;;;;;;;24.20;21.70;;;;;;;9.44;100.00;100015.73;109689;1250;59809;-70
2023/09/05 04:14:31;;;;;;;23.80;21.40;;;;;;;9.46;100.00;100011.02;109271;1251;58979;-69
2023/09/05 04:16:57;;;;;;;24.80;22.20;;;;;;;9.49;100.00;100013.40;109359;1251;58967;-69
2023/09/05 04:19:24;;;;;;;23.50;21.10;;;;;;;9.52;100.00;100011.11;109598;1251;66831;-70
2023/09/05 04:21:50;;;;;;;23.60;21.20;;;;;;;9.57;100.00;100018.20;109694;1251;58981;-71
2023/09/05 04:24:17;;;;;;;21.70;19.70;;;;;;;9.69;100.00;100022.55;109659;1251;63796;-71
2023/09/05 04:26:45;;;;;;;22.30;20.10;;;;;;;9.96;100.00;100025.55;109635;1255;59018;-70
2023/09/05 04:29:11;;;;;;;21.50;19.40;;;;;;;10.23;100.00;100026.39;109617;1251;59104;-70
2023/09/05 04:31:38;;;;;;;18.00;16.30;;;;;;;10.47;100.00;100026.27;109640;1251;65711;-70
2023/09/05 04:34:04;;;;;;;17.30;15.80;;;;;;;10.73;100.00;100026.76;109422;1251;60208;-70
2023/09/05 04:36:31;;;;;;;16.50;15.00;;;;;;;10.99;100.00;100025.77;109616;1250;64016;-70
2023/09/05 04:38:59;;;;;;;16.70;15.20;;;;;;;11.22;100.00;100028.14;109282;1251;59119;-70
2023/09/05 04:41:25;;;;;;;15.80;14.40;;;;;;;11.49;100.00;100033.22;109625;1250;58990;-70
2023/09/05 04:43:52;;;;;;;17.70;16.00;;;;;;;11.76;100.00;100031.59;109652;1253;67171;-70
2023/09/05 04:46:18;;;;;;;16.10;13.90;;;;;;;11.98;100.00;100027.53;109706;1251;58939;-70
2023/09/05 04:48:45;;;;;;;14.70;13.30;;;;;;;12.19;100.00;100028.00;109656;1250;62646;-70
2023/09/05 04:51:11;;;;;;;15.30;13.70;;;;;;;12.22;100.00;100031.21;109666;1250;58951;-71
2023/09/05 04:53:38;;;;;;;14.50;13.10;;;;;;;12.47;100.00;100032.25;109656;1251;59497;-71
2023/09/05 04:56:04;;;;;;;13.50;12.40;;;;;;;12.75;100.00;100040.58;109633;1250;59523;-71
2023/09/05 04:58:31;;;;;;;13.00;11.90;;;;;;;12.94;100.00;100041.77;109647;1251;60013;-70
2023/09/05 05:01:04;;;;;;;17.80;11.50;;;;;;;13.06;100.00;100039.63;109680;1251;62836;-71
2023/09/05 05:03:32;;;;;;;19.50;12.00;;;;;;;13.09;100.00;100037.67;109631;1251;59007;-70
2023/09/05 05:06:00;;;;;;;24.70;10.60;;;;;;;13.12;100.00;100033.34;109604;1251;59037;-70
2023/09/05 05:08:26;;;;;;;31.30;10.60;;;;;;;13.24;100.00;100035.84;109700;1250;66081;-71
2023/09/05 05:10:53;;;;;;;30.70;11.10;;;;;;;13.43;100.00;100044.55;109670;1251;58987;-71
2023/09/05 05:13:22;;;;;;;11.40;10.30;;;;;;;13.75;100.00;100045.57;109298;1252;59059;-71
2023/09/05 05:15:49;;;;;;;10.40;9.40;;;;;;;14.15;100.00;100046.20;109685;1250;58979;-71
2023/09/05 05:18:15;;;;;;;10.70;9.80;;;;;;;14.50;100.00;100045.20;109677;1251;59016;-71
2023/09/05 05:20:42;;;;;;;10.80;9.30;;;;;;;14.77;100.00;100041.06;109638;1252;66016;-71
2023/09/05 05:23:08;;;;;;;10.20;9.30;;;;;;;15.08;100.00;100038.83;109685;1251;59015;-71
2023/09/05 05:25:36;;;;;;;11.20;10.20;;;;;;;15.33;100.00;100037.95;109659;1250;64073;-71
2023/09/05 05:28:04;;;;;;;10.20;9.30;;;;;;;15.65;100.00;100035.53;109648;1251;58985;-71
2023/09/05 05:30:36;;;;;;;9.70;8.70;;;;;;;15.99;100.00;100034.72;109683;1251;58926;-71
2023/09/05 05:33:03;;;;;;;10.50;9.40;;;;;;;16.16;100.00;100036.34;109674;1255;66077;-71
2023/09/05 05:35:30;;;;;;;11.70;10.60;;;;;;;16.38;100.00;100034.20;109280;1257;60278;-71
2023/09/05 05:37:57;;;;;;;12.80;10.40;;;;;;;16.71;100.00;100037.45;109661;1251;63740;-71
2023/09/05 05:40:23;;;;;;;10.90;10.00;;;;;;;16.95;100.00;100035.83;109633;1251;58940;-71
2023/09/05 05:42:50;;;;;;;11.30;10.30;;;;;;;17.23;100.00;100035.96;109647;1250;58933;-71
2023/09/05 05:45:16;;;;;;;12.60;11.30;;;;;;;17.52;100.00;100041.13;109696;1251;64694;-71
2023/09/05 05:47:43;;;;;;;11.40;10.40;;;;;;;17.61;100.00;100038.62;109644;1250;60304;-71
2023/09/05 05:50:09;;;;;;;12.60;11.50;;;;;;;17.66;100.00;100042.70;109675;1251;59042;-71
2023/09/05 05:52:38;;;;;;;13.00;11.80;;;;;;;17.73;100.00;100043.56;109685;1251;58987;-71
2023/09/05 05:55:06;;;;;;;12.60;11.50;;;;;;;17.80;100.00;100045.70;109672;1250;58995;-71
2023/09/05 05:57:32;;;;;;;12.50;11.40;;;;;;;17.87;100.00;100046.10;109648;1251;66027;-71
2023/09/05 05:59:59;;;;;;;13.30;11.70;;;;;;;18.00;100.00;100050.05;109664;1251;58942;-71
2023/09/05 06:02:25;;;;;;;12.50;11.30;;;;;;;18.28;100.00;100048.48;109338;1251;62521;-71
2023/09/05 06:04:52;;;;;;;13.00;11.60;;;;;;;18.52;100.00;100044.02;109681;1251;58962;-72
2023/09/05 06:07:19;;;;;;;12.70;11.60;;;;;;;18.70;100.00;100046.67;109655;1251;58921;-72
2023/09/05 06:09:45;;;;;;;12.40;11.20;;;;;;;18.77;100.00;100049.42;109698;1251;64559;-71
2023/09/05 06:12:12;;;;;;;12.80;11.50;;;;;;;18.84;100.00;100048.71;109654;1251;59153;-71
2023/09/05 06:14:38;;;;;;;11.80;10.60;;;;;;;18.93;100.00;100044.73;109645;1251;63846;-71
2023/09/05 06:17:05;;;;;;;11.40;10.40;;;;;;;19.04;100.00;100040.73;109625;1251;59034;-71
2023/09/05 06:19:31;;;;;;;11.40;9.40;;;;;;;19.14;100.00;100039.67;109692;1251;58939;-71
2023/09/05 06:21:58;;;;;;;11.50;10.40;;;;;;;19.20;100.00;100040.04;109669;1251;64855;-71
2023/09/05 06:24:25;;;;;;;10.30;9.40;;;;;;;19.23;100.00;100043.39;109636;1251;58970;-71
2023/09/05 06:26:51;;;;;;;10.10;9.20;;;;;;;19.23;100.00;100044.30;109637;1251;64073;-70
2023/09/05 06:29:18;;;;;;;11.40;9.30;;;;;;;19.19;100.00;100048.77;109649;1250;58896;-70
2023/09/05 06:31:47;;;;;;;9.90;8.90;;;;;;;19.15;100.00;100049.14;109627;1251;58974;-70
2023/09/05 06:34:14;;;;;;;9.60;8.60;;;;;;;19.07;100.00;100053.78;109662;1251;64951;-70
2023/09/05 06:36:41;;;;;;;11.90;9.30;;;;;;;18.93;100.00;100051.55;109669;1251;60108;-70
2023/09/05 06:39:08;;;;;;;10.70;9.80;;;;;;;18.69;100.00;100051.05;109643;1250;62519;-70
2023/09/05 06:41:35;;;;;;;11.80;10.20;;;;;;;18.42;100.00;100054.16;109621;1251;58945;-70
2023/09/05 06:44:01;;;;;;;11.90;10.70;;;;;;;18.26;100.00;100053.17;109728;1251;59018;-70
2023/09/05 06:46:28;;;;;;;10.50;9.50;;;;;;;18.07;100.00;100053.08;109603;1251;66035;-70
2023/09/05 06:48:54;;;;;;;13.30;10.30;;;;;;;17.90;100.00;100047.73;109592;1251;59097;-71
2023/09/05 06:51:21;;;;;;;11.10;9.90;;;;;;;17.83;100.00;100043.15;109409;1252;202763;-71
2023/09/05 06:53:48;;;;;;;11.20;9.50;;;;;;;17.76;100.00;100042.56;109398;1254;59067;-71
2023/09/05 06:56:16;;;;;;;10.30;9.30;;;;;;;17.72;100.00;100041.65;109562;1252;58941;-71
2023/09/05 06:58:43;;;;;;;10.80;9.80;;;;;;;17.69;100.00;100039.74;109582;1255;65871;-71
2023/09/05 07:01:09;;;;;;;11.70;10.30;;;;;;;17.63;100.00;100037.35;109567;1253;59326;-71
2023/09/05 07:03:36;;;;;;;11.70;9.70;;;;;;;17.55;100.00;100035.13;109569;1252;62687;-71
2023/09/05 07:06:03;;;;;;;11.20;10.10;;;;;;;17.48;100.00;100036.88;109534;1254;58968;-71
2023/09/05 07:08:31;;;;;;;11.90;10.40;;;;;;;17.45;100.00;100033.00;109578;1253;58918;-71
2023/09/05 07:10:57;;;;;;;12.70;11.40;;;;;;;17.44;100.00;100027.73;109561;1253;64827;-71
2023/09/05 07:13:25;;;;;;;12.40;11.20;;;;;;;17.39;100.00;100026.64;109535;1252;58990;-71
2023/09/05 07:15:51;;;;;;;14.60;11.70;;;;;;;17.36;100.00;100022.61;109628;1254;62897;-71
2023/09/05 07:18:18;;;;;;;13.80;11.60;;;;;;;17.33;100.00;100022.41;109541;1254;58920;-71
2023/09/05 07:20:44;;;;;;;14.10;12.50;;;;;;;17.38;100.00;100022.41;109541;1252;59042;-71
2023/09/05 07:23:11;;;;;;;14.70;13.00;;;;;;;17.50;100.00;100021.81;109546;1251;65842;-71
2023/09/05 07:25:39;;;;;;;16.80;14.60;;;;;;;17.61;100.00;100020.41;109233;1253;59248;-71
2023/09/05 07:28:06;;;;;;;17.70;14.80;;;;;;;17.68;100.00;100015.89;109519;1253;63866;-71
2023/09/05 07:30:33;;;;;;;16.60;13.90;;;;;;;17.76;100.00;100011.87;109516;1252;58940;-71
2023/09/05 07:32:59;;;;;;;15.70;13.70;;;;;;;17.83;100.00;100014.16;109608;1251;58892;-71
2023/09/05 07:35:26;;;;;;;14.50;12.60;;;;;;;17.90;100.00;100017.56;109576;1252;66029;-71
2023/09/05 07:37:53;;;;;;;16.60;13.10;;;;;;;17.99;100.00;100023.89;109568;1253;59911;-71
2023/09/05 07:40:22;;;;;;;14.60;13.10;;;;;;;18.05;100.00;100022.47;109538;1253;64060;-71
2023/09/05 07:42:50;;;;;;;13.50;12.20;;;;;;;18.14;100.00;100026.60;109518;1253;59490;-71
2023/09/05 07:45:16;;;;;;;14.70;12.30;;;;;;;18.24;100.00;100028.52;109520;1251;58967;-71
2023/09/05 07:47:43;;;;;;;13.50;11.60;;;;;;;18.33;100.00;100027.76;109665;1251;64542;-71
2023/09/05 07:50:09;;;;;;;12.90;11.00;;;;;;;18.42;100.00;100029.30;109725;1251;59002;-71
2023/09/05 07:52:36;;;;;;;12.80;11.50;;;;;;;18.56;100.00;100031.59;109617;1251;64037;-71
2023/09/05 07:55:03;;;;;;;13.50;11.20;;;;;;;18.66;100.00;100033.66;109638;1251;59025;-71
2023/09/05 07:57:30;;;;;;;12.70;11.40;;;;;;;18.76;100.00;100036.02;109687;1250;58957;-71
2023/09/05 07:59:56;;;;;;;12.60;11.20;;;;;;;18.84;100.00;100036.95;109652;1251;64501;-71
2023/09/05 08:02:23;;;;;;;10.90;9.70;;;;;;;18.95;100.00;100034.79;109704;1251;58942;-71
2023/09/05 08:04:49;;;;;;;12.00;10.80;;;;;;;19.09;100.00;100033.23;109411;1251;64075;-71
2023/09/05 08:07:16;;;;;;;12.20;11.00;;;;;;;19.20;100.00;100033.96;109627;1251;59022;-72
2023/09/05 08:09:44;;;;;;;11.60;10.50;;;;;;;19.25;100.00;100033.62;109424;1250;59023;-71
2023/09/05 08:12:10;;;;;;;12.10;9.50;;;;;;;19.27;100.00;100034.05;109674;1250;67239;-71
2023/09/05 08:14:37;;;;;;;10.80;9.60;;;;;;;19.30;100.00;100032.54;109647;1250;59836;-71
2023/09/05 08:17:04;;;;;;;10.80;9.70;;;;;;;19.36;100.00;100032.74;109623;1250;64021;-71
2023/09/05 08:19:30;;;;;;;10.90;9.90;;;;;;;19.45;100.00;100028.15;109551;1251;59350;-71
2023/09/05 08:21:57;;;;;;;11.50;9.90;;;;;;;19.57;100.00;100023.35;109627;1251;58964;-71
2023/09/05 08:24:23;;;;;;;9.10;8.30;;;;;;;19.66;100.00;100017.84;109690;1250;64891;-71
2023/09/05 08:26:50;;;;;;;10.20;8.20;;;;;;;19.72;100.00;100014.59;109674;1251;60209;-71
2023/09/05 08:29:18;;;;;;;10.00;9.00;;;;;;;19.79;100.00;100011.29;109625;1250;64068;-71
2023/09/05 08:31:45;;;;;;;8.20;7.50;;;;;;;19.83;100.00;100010.62;109649;1251;58939;-72
2023/09/05 08:34:11;;;;;;;10.10;8.80;;;;;;;19.92;100.00;100006.86;109661;1250;58904;-71
2023/09/05 08:36:38;;;;;;;8.50;7.30;;;;;;;20.01;100.00;100004.27;109631;1251;64838;-71
2023/09/05 08:39:05;;;;;;;8.00;7.20;;;;;;;20.08;100.00;100006.02;109630;1251;59856;-71
2023/09/05 08:41:32;;;;;;;7.90;6.40;;;;;;;20.14;100.00;100002.90;109433;1251;63945;-71
2023/09/05 08:43:58;;;;;;;8.90;7.80;;;;;;;20.24;100.00;100001.98;109639;1251;58963;-71
2023/09/05 08:46:26;;;;;;;9.00;7.00;;;;;;;20.35;100.00;100001.56;109657;1251;59030;-71
2023/09/05 08:48:52;;;;;;;7.40;6.70;;;;;;;20.39;100.00;100006.73;109680;1251;66031;-71
2023/09/05 08:51:20;;;;;;;7.00;6.40;;;;;;;20.39;100.00;100006.73;109627;1250;59017;-71
2023/09/05 08:54:00;;;;;;;7.60;6.70;;;;;;;20.41;100.00;100002.06;109292;1251;62542;-71
2023/09/05 08:56:27;;;;;;;7.80;7.10;;;;;;;20.53;100.00;100005.14;109652;1250;58960;-72
2023/09/05 08:58:56;;;;;;;6.20;5.60;;;;;;;20.65;100.00;100002.41;109607;1250;58903;-71
2023/09/05 09:01:24;;;;;;;6.00;5.30;;;;;;;20.77;100.00;99996.62;109665;1250;65832;-71
2023/09/05 09:03:51;;;;;;;5.50;5.00;;;;;;;20.86;100.00;99992.94;109691;1251;59014;-71
2023/09/05 09:06:25;;;;;;;8.60;5.90;;;;;;;20.93;100.00;99994.52;109652;1250;62833;-71
2023/09/05 09:08:54;;;;;;;6.40;5.80;;;;;;;20.96;100.00;99991.08;109593;1251;58971;-71
2023/09/05 09:11:21;;;;;;;6.70;6.00;;;;;;;20.98;100.00;99986.70;109673;1250;58966;-71
2023/09/05 09:14:07;;;;;;;6.90;6.10;;;;;;;21.00;100.00;99981.61;109647;1250;67159;-71
2023/09/05 09:16:43;;;;;;;5.90;5.20;;;;;;;21.06;100.00;99980.70;109255;1256;60195;-71
2023/09/05 09:19:13;;;;;;;5.70;4.90;;;;;;;21.16;100.00;99977.16;109224;1255;62823;-71
2023/09/05 09:21:40;;;;;;;5.60;5.00;;;;;;;21.32;100.00;99977.80;109210;1255;59059;-71
2023/09/05 09:24:11;;;;;;;6.30;5.50;;;;;;;21.47;100.00;99978.27;109270;1255;59023;-71
2023/09/05 09:26:39;;;;;;;6.00;4.70;;;;;;;21.55;100.00;99979.27;109203;1256;65047;-71
2023/09/05 09:29:09;;;;;;;6.10;4.30;;;;;;;21.60;100.00;99980.04;109083;1256;59750;-70
2023/09/05 09:31:40;;;;;;;4.80;4.20;;;;;;;21.73;100.00;99978.22;109040;1256;62936;-71
2023/09/05 09:34:07;;;;;;;5.10;4.60;;;;;;;21.86;100.00;99975.17;109234;1256;58966;-71
2023/09/05 09:36:37;;;;;;;4.20;3.90;;;;;;;21.98;100.00;99979.02;109241;1255;59161;-71
2023/09/05 09:39:11;;;;;;;5.80;4.10;;;;;;;22.00;100.00;99979.75;109229;1255;65774;-71
2023/09/05 09:41:47;;;;;;;5.60;4.50;;;;;;;22.02;100.00;99979.57;109286;1255;59039;-71
2023/09/05 09:44:25;;;;;;;4.00;3.60;;;;;;;22.08;100.00;99982.41;109228;1256;64340;-71
2023/09/05 09:46:54;;;;;;;5.60;3.60;;;;;;;22.07;100.00;99985.52;109339;1251;59120;-71
2023/09/05 09:49:23;;;;;;;3.50;3.20;;;;;;;22.10;100.00;99988.11;109649;1250;59022;-70
2023/09/05 09:51:56;;;;;;;4.10;3.20;;;;;;;22.12;100.00;99985.59;109675;1251;66033;-70
2023/09/05 09:54:29;;;;;;;4.50;3.10;;;;;;;22.13;100.00;99985.13;109664;1250;59118;-70
2023/09/05 09:56:59;;;;;;;4.90;3.00;;;;;;;22.11;100.00;99980.95;109340;1251;62893;-70
2023/09/05 09:59:35;;;;;;;3.30;3.00;;;;;;;22.14;100.00;99972.88;109597;1250;59031;-70
2023/09/05 10:02:09;;;;;;;3.30;2.80;;;;;;;22.24;100.00;99971.22;109647;1250;58968;-71
2023/09/05 10:04:40;;;;;;;2.90;2.70;;;;;;;22.30;100.00;99970.95;109629;1250;64861;-71
2023/09/05 10:07:07;;;;;;;3.50;3.00;;;;;;;22.31;100.00;99970.11;109512;1251;58972;-71
2023/09/05 10:09:37;;;;;;;2.90;2.70;;;;;;;22.33;100.00;99967.72;109629;1250;63172;-70
2023/09/05 10:12:26;;;;;;;3.20;2.90;;;;;;;22.32;100.00;99966.73;109687;1250;58983;-70
2023/09/05 10:14:55;;;;;;;5.30;2.40;;;;;;;22.33;100.00;99962.12;109356;1254;58948;-71
2023/09/05 10:17:23;;;;;;;2.80;2.60;;;;;;;22.38;100.00;99955.50;109321;1256;66041;-70
2023/09/05 10:19:52;;;;;;;3.00;2.80;;;;;;;22.45;100.00;99952.10;109351;1254;60137;-71
2023/09/05 10:22:18;;;;;;;3.50;2.70;;;;;;;22.46;100.00;99948.92;109354;1254;64132;-71
2023/09/05 10:24:46;;;;;;;3.00;2.80;;;;;;;22.51;100.00;99950.20;109219;1256;59081;-71
2023/09/05 10:27:12;;;;;;;3.10;2.90;;;;;;;22.56;100.00;99948.39;109235;1256;59074;-71
2023/09/05 10:29:42;;;;;;;3.20;3.00;;;;;;;22.60;100.00;99947.67;109222;1255;64617;-70
2023/09/05 10:32:22;;;;;;;2.80;2.60;;;;;;;22.66;100.00;99943.94;109292;1255;59189;-71
2023/09/05 10:34:48;;;;;;;3.40;3.10;;;;;;;22.78;100.00;99940.77;109239;1256;64151;-71
2023/09/05 10:37:18;;;;;;;3.90;2.80;;;;;;;22.87;100.00;99932.61;109232;1256;59382;-71
2023/09/05 10:39:46;;;;;;;2.90;2.70;;;;;;;22.89;100.00;99927.70;109215;1256;59020;-70
2023/09/05 10:42:13;;;;;;;3.30;3.00;;;;;;;22.90;100.00;99924.83;109285;1256;65764;-70
2023/09/05 10:44:45;;;;;;;3.00;2.70;;;;;;;22.97;100.00;99924.66;109244;1256;60166;-71
2023/09/05 10:47:28;;;;;;;3.10;2.40;;;;;;;22.99;100.00;99918.27;109529;1252;64070;-70
2023/09/05 10:49:59;;;;;;;2.70;2.40;;;;;;;23.09;100.00;99912.88;109538;1251;58984;-71
2023/09/05 10:52:29;;;;;;;2.80;2.50;;;;;;;23.23;100.00;99910.14;109606;1252;58815;-71
2023/09/05 10:54:58;;;;;;;2.90;2.70;;;;;;;23.31;100.00;99906.85;109629;1250;64822;-71
2023/09/05 10:57:34;;;;;;;2.70;2.50;;;;;;;23.32;100.00;99900.66;109532;1251;60239;-71
2023/09/05 11:00:16;;;;;;;2.90;2.40;;;;;;;23.34;100.00;99897.98;109568;1252;65329;-70
2023/09/05 11:02:43;;;;;;;3.60;2.30;;;;;;;23.44;100.00;99896.88;109612;1251;59059;-70
2023/09/05 11:05:18;;;;;;;2.40;2.20;;;;;;;23.55;100.00;99898.59;109666;1250;58813;-71